EVLA/LPX METAR and TAF weather

Enter ICAO airport designator
Station Type Date Time Source
EVLA METAR 2022/08/13 11:50 UTC NOAA

EVLA 131150Z AUTO 31006KT 270V350 CAVOK 27/15 Q1021


Station Type Date Time Source
EVLA Decoded METAR 2022/08/13 11:50 UTC NOAA

Liepaja International Airport, Latvia (EVLA) 56-31N 021-05E
Aug 13, 2022 - 07:50 AM EDT / 2022.08.13 1150 UTC
Wind: from the NW (310 degrees) at 7 MPH (6 KT) (direction variable):0
Visibility: greater than 7 mile(s):0
Temperature: 80 F (27 C)
Dew Point: 59 F (15 C)
Relative Humidity: 47%
Pressure (altimeter): 30.15 in. Hg (1021 hPa)
ob: EVLA 131150Z AUTO 31006KT 270V350 CAVOK 27/15 Q1021
cycle: 12

Station Type Date Time Source
EVLA TAF 2022/08/13 12:06 UTC NOAA

TAF TAF EVLA 131105Z 1312/1412 34010KT CAVOK
BECMG 1319/1321 07005KT

Example: see airport list